Terminal Aerodrome Forecast
Issued by NWS Binghamton, NY

Home | Current Version | Previous Version | Text Only | Print | Product List | Glossary On
Versions: 1 2 3 4 5 6 7 8 9 10 11 12 13 14
741
FTUS41 KBGM 191135
TAFAVP
TAF
KAVP 191135Z 1912/2012 25007KT P6SM SCT200
     FM191900 29008KT P6SM FEW100
     FM200300 31008KT P6SM BKN025=

USA.gov is the U.S. government's official web portal to all federal, state and local government web resources and services.